createdAt,value
2018-05-11T00:01:07.791Z,86.58
2018-05-11T00:03:33.636Z,86.62
2018-05-11T00:05:59.497Z,86.34
2018-05-11T00:08:25.424Z,86.32
2018-05-11T00:10:51.317Z,86.57
2018-05-11T00:13:17.142Z,86.46
2018-05-11T00:15:42.995Z,85.88
2018-05-11T00:18:08.834Z,86.01
2018-05-11T00:20:34.678Z,86.17
2018-05-11T00:23:00.516Z,86.27
2018-05-11T00:25:26.398Z,85.75
2018-05-11T00:27:52.280Z,85.94
2018-05-11T00:30:18.179Z,85.96
2018-05-11T00:32:44.019Z,85.65
2018-05-11T00:35:09.893Z,86.47
2018-05-11T00:37:35.789Z,85.60
2018-05-11T00:40:01.645Z,86.78
2018-05-11T00:42:27.520Z,86.14
2018-05-11T00:44:53.409Z,84.70
2018-05-11T00:47:19.262Z,84.71
2018-05-11T00:49:45.081Z,85.08
2018-05-11T00:52:10.949Z,85.46
2018-05-11T00:54:36.816Z,85.59
2018-05-11T00:57:02.666Z,86.01
2018-05-11T00:59:28.507Z,85.75
2018-05-11T01:01:54.345Z,85.68
2018-05-11T01:04:20.221Z,85.01
2018-05-11T01:06:46.082Z,85.22
2018-05-11T01:09:12.066Z,85.45
2018-05-11T01:11:37.906Z,85.14
2018-05-11T01:14:03.784Z,85.32
2018-05-11T01:16:29.660Z,85.31
2018-05-11T01:18:55.541Z,85.52
2018-05-11T01:21:21.389Z,85.17
2018-05-11T01:23:47.244Z,85.30
2018-05-11T01:26:13.125Z,85.14
2018-05-11T01:28:38.972Z,85.29
2018-05-11T01:31:04.856Z,85.52
2018-05-11T01:33:30.709Z,85.16
2018-05-11T01:35:56.558Z,84.88
2018-05-11T01:38:22.388Z,85.04
2018-05-11T01:40:48.232Z,85.15
2018-05-11T01:43:14.073Z,85.23
2018-05-11T01:45:39.944Z,85.64
2018-05-11T01:48:05.768Z,85.89
2018-05-11T01:50:31.617Z,85.96
2018-05-11T01:52:57.445Z,85.96
2018-05-11T01:55:23.265Z,86.50
2018-05-11T01:57:49.085Z,86.64
2018-05-11T02:00:14.941Z,86.49
2018-05-11T02:02:40.838Z,86.53
2018-05-11T02:05:06.665Z,87.06
2018-05-11T02:07:32.524Z,86.17
2018-05-11T02:09:58.396Z,85.87
2018-05-11T02:12:24.274Z,85.68
2018-05-11T02:14:50.113Z,85.27
2018-05-11T02:17:15.960Z,85.61
2018-05-11T02:19:41.801Z,85.97
2018-05-11T02:22:07.634Z,86.26
2018-05-11T02:24:33.490Z,86.33
2018-05-11T02:26:59.369Z,86.48
2018-05-11T02:29:25.197Z,86.43
2018-05-11T02:31:51.072Z,86.71
2018-05-11T02:34:16.910Z,86.81
2018-05-11T02:36:42.721Z,86.43
2018-05-11T02:39:08.601Z,86.32
2018-05-11T02:41:34.481Z,86.91
2018-05-11T02:44:00.319Z,87.07
2018-05-11T02:46:26.197Z,87.48
2018-05-11T02:48:52.076Z,87.79
2018-05-11T02:51:17.949Z,87.77
2018-05-11T02:53:43.806Z,87.89
2018-05-11T02:56:09.680Z,87.82
2018-05-11T02:58:35.570Z,87.84
2018-05-11T03:01:01.405Z,87.60
2018-05-11T03:03:27.286Z,87.69
2018-05-11T03:05:53.145Z,87.70
2018-05-11T03:08:19.004Z,87.76
2018-05-11T03:10:44.882Z,87.75
2018-05-11T03:13:10.709Z,88.53
2018-05-11T03:15:36.565Z,88.10
2018-05-11T03:18:02.423Z,87.27
2018-05-11T03:20:28.282Z,87.08
2018-05-11T03:22:54.116Z,87.32
2018-05-11T03:25:19.980Z,86.94
2018-05-11T03:27:45.872Z,86.60
2018-05-11T03:30:11.722Z,87.21
2018-05-11T03:32:37.569Z,87.76
2018-05-11T03:35:03.545Z,86.67
2018-05-11T03:37:29.393Z,88.02
2018-05-11T03:39:55.256Z,88.88
2018-05-11T03:42:21.115Z,88.73
2018-05-11T03:44:46.975Z,88.17
2018-05-11T03:47:12.819Z,88.64
2018-05-11T03:49:38.676Z,88.84
2018-05-11T03:52:04.542Z,89.75
2018-05-11T03:54:30.393Z,90.09
2018-05-11T03:56:56.908Z,89.68
2018-05-11T03:59:22.757Z,88.75
2018-05-11T04:02:01.072Z,89.55
2018-05-11T04:04:39.248Z,88.53
2018-05-11T04:07:17.373Z,89.61
2018-05-11T04:09:47.573Z,88.99
2018-05-11T04:12:13.416Z,88.46
2018-05-11T04:14:39.290Z,89.39
2018-05-11T04:17:05.240Z,89.45
2018-05-11T04:19:31.129Z,89.74
2018-05-11T04:21:56.972Z,89.33
2018-05-11T04:24:22.845Z,88.07
2018-05-11T04:26:48.716Z,88.68
2018-05-11T04:29:14.573Z,88.58
2018-05-11T04:31:40.385Z,89.50
2018-05-11T04:34:06.268Z,88.70
2018-05-11T04:36:32.155Z,88.91
2018-05-11T04:38:58.002Z,89.35
2018-05-11T04:41:23.865Z,89.88
2018-05-11T04:43:49.712Z,90.38
2018-05-11T04:46:15.576Z,89.27
2018-05-11T04:48:41.421Z,89.14
2018-05-11T04:51:07.240Z,89.28
2018-05-11T04:53:33.112Z,88.80
2018-05-11T04:55:59.001Z,89.34
2018-05-11T04:58:25.261Z,89.59
2018-05-11T05:00:52.052Z,89.92
2018-05-11T05:03:17.945Z,91.39
2018-05-11T05:05:43.813Z,91.06
2018-05-11T05:08:09.864Z,90.45
2018-05-11T05:10:35.737Z,90.05
2018-05-11T05:13:01.604Z,90.12
2018-05-11T05:15:27.449Z,89.95
2018-05-11T05:17:53.312Z,89.60
2018-05-11T05:20:19.165Z,90.13
2018-05-11T05:22:45.049Z,90.33
2018-05-11T05:25:10.923Z,90.18
2018-05-11T05:27:36.815Z,89.93
2018-05-11T05:30:02.729Z,90.30
2018-05-11T05:32:28.623Z,90.79
2018-05-11T05:34:54.449Z,90.13
2018-05-11T05:37:20.265Z,91.06
2018-05-11T05:39:46.126Z,90.79
2018-05-11T05:42:11.973Z,90.80
2018-05-11T05:44:37.828Z,90.88
2018-05-11T05:47:03.673Z,91.13
2018-05-11T05:49:29.540Z,91.15
2018-05-11T05:51:55.409Z,90.75
2018-05-11T05:54:21.280Z,91.24
2018-05-11T05:56:47.146Z,91.33
2018-05-11T05:59:13.081Z,90.46
2018-05-11T06:01:39.040Z,90.30
2018-05-11T06:04:04.890Z,89.80
2018-05-11T06:06:31.087Z,90.52
2018-05-11T06:08:56.971Z,90.67
2018-05-11T06:11:22.816Z,90.42
2018-05-11T06:13:48.645Z,89.62
2018-05-11T06:16:14.489Z,89.11
2018-05-11T06:18:40.301Z,87.89
2018-05-11T06:21:06.168Z,88.71
2018-05-11T06:23:32.022Z,88.07
2018-05-11T06:25:57.893Z,87.52
2018-05-11T06:28:23.724Z,87.25
2018-05-11T06:30:49.648Z,85.57
2018-05-11T06:33:15.515Z,85.89
2018-05-11T06:35:41.362Z,86.28
2018-05-11T06:38:07.228Z,85.84
2018-05-11T06:40:33.138Z,85.63
2018-05-11T06:42:58.915Z,85.71
2018-05-11T06:45:24.788Z,85.80
2018-05-11T06:47:50.628Z,85.93
2018-05-11T06:50:16.450Z,85.74
2018-05-11T06:52:42.289Z,86.06
2018-05-11T06:55:08.117Z,86.30
2018-05-11T06:57:33.992Z,85.87
2018-05-11T06:59:59.853Z,85.84
2018-05-11T07:02:25.731Z,85.92
2018-05-11T07:04:51.615Z,85.35
2018-05-11T07:07:17.466Z,85.27
2018-05-11T07:09:43.312Z,85.55
2018-05-11T07:12:09.138Z,84.90
2018-05-11T07:14:34.985Z,84.89
2018-05-11T07:17:00.856Z,84.67
2018-05-11T07:19:26.758Z,84.32
2018-05-11T07:21:52.589Z,84.08
2018-05-11T07:24:18.486Z,83.62
2018-05-11T07:26:44.326Z,83.59
2018-05-11T07:29:10.144Z,82.81
2018-05-11T07:31:36.000Z,82.54
2018-05-11T07:34:01.879Z,83.41
2018-05-11T07:36:27.741Z,84.19
2018-05-11T07:38:53.571Z,84.20
2018-05-11T07:41:19.408Z,83.26
2018-05-11T07:43:45.304Z,83.96
2018-05-11T07:46:11.185Z,82.76
2018-05-11T07:48:36.982Z,82.80
2018-05-11T07:51:02.868Z,83.57
2018-05-11T07:53:28.746Z,81.94
2018-05-11T07:55:54.607Z,79.69
2018-05-11T07:58:20.478Z,77.98
2018-05-11T08:00:46.447Z,78.81
2018-05-11T08:03:12.243Z,79.24
2018-05-11T08:05:38.106Z,78.68
2018-05-11T08:08:04.022Z,79.49
2018-05-11T08:10:29.913Z,79.07
2018-05-11T08:12:55.788Z,79.01
2018-05-11T08:15:21.628Z,79.48
2018-05-11T08:17:47.461Z,78.62
2018-05-11T08:20:13.293Z,77.18
2018-05-11T08:22:39.163Z,76.46
2018-05-11T08:25:05.072Z,76.93
2018-05-11T08:27:30.960Z,76.47
2018-05-11T08:29:56.801Z,78.52
2018-05-11T08:32:22.654Z,77.91
2018-05-11T08:34:48.504Z,77.23
2018-05-11T08:37:14.341Z,76.88
2018-05-11T08:39:40.189Z,75.51
2018-05-11T08:42:06.108Z,75.96
2018-05-11T08:44:31.981Z,76.04
2018-05-11T08:46:57.831Z,75.88
2018-05-11T08:49:23.670Z,76.45
2018-05-11T08:51:49.602Z,76.09
2018-05-11T08:54:15.378Z,76.24
2018-05-11T08:56:41.240Z,75.46
2018-05-11T08:59:07.133Z,75.14
2018-05-11T09:01:33.044Z,75.12
2018-05-11T09:03:58.890Z,75.15
2018-05-11T09:06:24.728Z,74.06
2018-05-11T09:08:50.588Z,73.08
2018-05-11T09:11:16.441Z,74.10
2018-05-11T09:13:42.325Z,73.99
2018-05-11T09:16:08.211Z,72.90
2018-05-11T09:18:34.105Z,72.27
2018-05-11T09:20:59.965Z,72.56
2018-05-11T09:23:25.821Z,72.97
2018-05-11T09:25:51.644Z,72.36
2018-05-11T09:28:17.501Z,72.68
2018-05-11T09:30:43.344Z,72.74
2018-05-11T09:33:09.228Z,73.93
2018-05-11T09:35:35.083Z,74.08
2018-05-11T09:38:00.922Z,74.14
2018-05-11T09:40:26.768Z,73.91
2018-05-11T09:42:52.589Z,73.44
2018-05-11T09:45:18.457Z,73.96
2018-05-11T09:47:44.326Z,72.99
2018-05-11T09:50:10.209Z,72.57
2018-05-11T09:52:36.073Z,72.19
2018-05-11T09:55:01.936Z,71.32
2018-05-11T09:57:27.816Z,71.07
2018-05-11T09:59:53.768Z,72.26
2018-05-11T10:02:26.606Z,71.60
2018-05-11T10:04:52.471Z,72.65
2018-05-11T10:07:18.336Z,72.34
2018-05-11T10:09:44.163Z,72.85
2018-05-11T10:12:10.049Z,73.60
2018-05-11T10:14:35.884Z,73.74
2018-05-11T10:17:01.745Z,73.89
2018-05-11T10:19:27.604Z,72.94
2018-05-11T10:21:53.449Z,72.80
2018-05-11T10:24:19.276Z,71.83
2018-05-11T10:26:45.174Z,72.97
2018-05-11T10:29:11.107Z,72.45
2018-05-11T10:31:36.905Z,71.53
2018-05-11T10:34:02.834Z,71.22
2018-05-11T10:36:28.676Z,70.59
2018-05-11T10:38:54.530Z,70.71
2018-05-11T10:41:20.381Z,71.18
2018-05-11T10:43:46.237Z,71.35
2018-05-11T10:46:12.112Z,71.33
2018-05-11T10:48:38.048Z,71.45
2018-05-11T10:51:03.913Z,71.90
2018-05-11T10:53:29.820Z,72.81
2018-05-11T10:55:55.661Z,72.55
2018-05-11T10:58:21.514Z,70.88
2018-05-11T11:00:47.349Z,69.98
2018-05-11T11:03:13.189Z,68.85
2018-05-11T11:05:39.049Z,69.74
2018-05-11T11:08:04.917Z,70.28
2018-05-11T11:10:30.781Z,69.33
2018-05-11T11:12:56.630Z,69.26
2018-05-11T11:15:22.786Z,68.68
2018-05-11T11:17:48.645Z,68.36
2018-05-11T11:20:14.512Z,68.74
2018-05-11T11:22:40.328Z,68.81
2018-05-11T11:25:06.187Z,68.15
2018-05-11T11:27:32.028Z,67.62
2018-05-11T11:29:57.894Z,66.39
2018-05-11T11:32:23.749Z,65.39
2018-05-11T11:34:49.600Z,65.42
2018-05-11T11:37:15.445Z,65.29
2018-05-11T11:39:41.256Z,65.49
2018-05-11T11:42:07.225Z,64.44
2018-05-11T11:44:33.077Z,66.59
2018-05-11T11:46:58.953Z,65.47
2018-05-11T11:49:24.800Z,63.53
2018-05-11T11:51:50.624Z,61.45
2018-05-11T11:54:16.467Z,61.66
2018-05-11T11:56:42.316Z,61.98
2018-05-11T11:59:08.142Z,61.23
2018-05-11T12:01:34.996Z,63.29
2018-05-11T12:04:00.797Z,63.79
2018-05-11T12:06:27.059Z,64.37
2018-05-11T12:08:52.959Z,61.54
2018-05-11T12:11:18.755Z,59.08
2018-05-11T12:13:44.629Z,56.69
2018-05-11T12:16:10.493Z,54.23
2018-05-11T12:18:36.390Z,54.18
2018-05-11T12:21:02.229Z,51.75
2018-05-11T12:23:28.103Z,50.94
2018-05-11T12:25:53.953Z,53.86
2018-05-11T12:28:19.830Z,55.18
2018-05-11T12:30:45.712Z,55.33
2018-05-11T12:33:11.607Z,54.28
2018-05-11T12:35:37.441Z,52.02
2018-05-11T12:38:03.284Z,52.20
2018-05-11T12:40:29.223Z,51.56
2018-05-11T12:42:55.079Z,52.22
2018-05-11T12:45:20.945Z,52.94
2018-05-11T12:47:46.761Z,53.86
2018-05-11T12:50:17.370Z,56.37
2018-05-11T12:52:43.319Z,57.41
2018-05-11T12:55:09.100Z,56.79
2018-05-11T12:57:34.962Z,55.92
2018-05-11T13:00:00.836Z,54.11
2018-05-11T13:02:26.714Z,53.27
2018-05-11T13:04:52.653Z,53.37
2018-05-11T13:07:18.554Z,54.63
2018-05-11T13:09:44.407Z,53.65
2018-05-11T13:12:10.341Z,53.69
2018-05-11T13:14:36.259Z,53.26
2018-05-11T13:17:02.163Z,50.42
2018-05-11T13:19:28.077Z,49.18
2018-05-11T13:21:53.992Z,46.76
2018-05-11T13:27:03.881Z,49.71
2018-05-11T13:29:29.921Z,50.17
2018-05-11T13:31:55.796Z,50.18
2018-05-11T13:34:21.861Z,52.09
2018-05-11T13:36:47.732Z,53.64
2018-05-11T13:39:13.605Z,54.04
2018-05-11T13:41:39.566Z,53.28
2018-05-11T13:44:05.444Z,55.00
2018-05-11T13:46:31.289Z,53.88
2018-05-11T13:48:57.180Z,54.62
2018-05-11T13:51:23.078Z,55.18
2018-05-11T13:53:48.980Z,54.00
2018-05-11T13:58:47.340Z,50.08
2018-05-11T14:01:13.237Z,47.04
2018-05-11T14:03:39.224Z,49.35
2018-05-11T14:06:05.092Z,49.58
2018-05-11T14:08:30.989Z,52.34
2018-05-11T14:10:56.861Z,50.35
2018-05-11T14:13:22.732Z,49.56
2018-05-11T14:15:48.633Z,49.40
2018-05-11T14:18:14.516Z,47.14
2018-05-11T14:20:40.380Z,46.11
2018-05-11T14:23:06.236Z,49.07
2018-05-11T14:25:32.120Z,47.61
2018-05-11T14:27:57.981Z,50.24
2018-05-11T14:30:23.863Z,50.59
2018-05-11T14:32:49.821Z,50.98
2018-05-11T14:35:15.683Z,51.81
2018-05-11T14:37:41.747Z,52.51
2018-05-11T14:40:07.631Z,53.76
2018-05-11T14:42:33.537Z,53.06
2018-05-11T14:44:59.408Z,53.48
2018-05-11T14:47:26.125Z,54.20
2018-05-11T14:49:52.804Z,51.26
2018-05-11T14:52:18.691Z,52.16
2018-05-11T14:54:44.587Z,51.91
2018-05-11T14:57:10.741Z,51.38
2018-05-11T14:59:36.672Z,51.66
2018-05-11T15:02:02.552Z,51.79
2018-05-11T15:04:28.425Z,50.87
2018-05-11T15:06:54.306Z,52.11
2018-05-11T15:09:20.192Z,52.06
2018-05-11T15:11:46.088Z,49.96
2018-05-11T15:14:11.933Z,48.58
2018-05-11T15:16:37.784Z,48.43
2018-05-11T15:19:03.773Z,47.56
2018-05-11T15:21:29.625Z,46.05
2018-05-11T15:23:55.484Z,44.73
2018-05-11T15:26:21.384Z,44.19
2018-05-11T15:28:47.252Z,44.51
2018-05-11T15:31:13.128Z,45.34
2018-05-11T15:33:39.281Z,44.12
2018-05-11T15:36:05.340Z,44.94
2018-05-11T15:38:31.212Z,44.31
2018-05-11T15:40:57.098Z,43.57
2018-05-11T15:43:23.094Z,44.69
2018-05-11T15:45:48.912Z,43.02
2018-05-11T15:48:14.798Z,42.80
2018-05-11T15:50:40.681Z,41.42
2018-05-11T15:53:06.556Z,41.14
2018-05-11T15:55:32.473Z,42.95
2018-05-11T15:57:58.348Z,42.47
2018-05-11T16:00:24.229Z,43.83
2018-05-11T16:02:50.130Z,43.06
2018-05-11T16:05:16.017Z,43.16
2018-05-11T16:07:41.909Z,45.68
2018-05-11T16:10:07.813Z,44.71
2018-05-11T16:12:33.740Z,45.35
2018-05-11T16:14:59.580Z,48.40
2018-05-11T16:17:25.615Z,47.51
2018-05-11T16:19:51.521Z,47.44
2018-05-11T16:22:17.394Z,47.96
2018-05-11T16:24:43.324Z,48.47
2018-05-11T16:27:09.334Z,49.83
2018-05-11T16:29:35.187Z,49.07
2018-05-11T16:32:01.092Z,50.90
2018-05-11T16:34:26.936Z,49.41
2018-05-11T16:36:52.850Z,50.43
2018-05-11T16:39:18.707Z,49.29
2018-05-11T16:41:44.559Z,51.34
2018-05-11T16:44:10.449Z,49.85
2018-05-11T16:46:36.328Z,50.06
2018-05-11T16:49:02.249Z,49.80
2018-05-11T16:51:28.137Z,49.93
2018-05-11T16:53:54.086Z,49.05
2018-05-11T16:56:20.054Z,51.41
2018-05-11T16:58:45.901Z,51.71
2018-05-11T17:01:11.743Z,51.81
2018-05-11T17:03:37.621Z,51.21
2018-05-11T17:06:03.529Z,51.38
2018-05-11T17:08:29.401Z,49.38
2018-05-11T17:10:55.273Z,49.42
2018-05-11T17:13:21.127Z,50.47
2018-05-11T17:15:46.963Z,49.63
2018-05-11T17:18:12.870Z,50.23
2018-05-11T17:20:38.789Z,50.43
2018-05-11T17:23:04.786Z,50.17
2018-05-11T17:25:30.632Z,49.45
2018-05-11T17:27:56.495Z,49.74
2018-05-11T17:30:22.353Z,50.56
2018-05-11T17:32:48.220Z,51.32
2018-05-11T17:35:14.075Z,51.19
2018-05-11T17:37:40.013Z,50.30
2018-05-11T17:40:05.924Z,50.72
2018-05-11T17:42:31.799Z,52.43
2018-05-11T17:44:57.653Z,53.37
2018-05-11T17:47:24.388Z,53.65
2018-05-11T17:49:50.249Z,55.63
2018-05-11T17:52:16.088Z,55.20
2018-05-11T17:54:41.940Z,56.66
2018-05-11T17:57:07.804Z,56.50
2018-05-11T17:59:33.666Z,56.64
2018-05-11T18:01:59.567Z,56.27
2018-05-11T18:04:25.417Z,57.97
2018-05-11T18:06:51.275Z,57.52
2018-05-11T18:09:17.125Z,58.37
2018-05-11T18:11:42.968Z,58.42
2018-05-11T18:14:08.821Z,58.62
2018-05-11T18:16:34.689Z,59.23
2018-05-11T18:19:00.607Z,59.69
2018-05-11T18:21:26.440Z,59.99
2018-05-11T18:23:53.099Z,60.16
2018-05-11T18:26:18.943Z,60.66
2018-05-11T18:28:44.831Z,60.75
2018-05-11T18:31:10.746Z,60.93
2018-05-11T18:33:36.612Z,61.46
2018-05-11T18:36:02.539Z,61.99
2018-05-11T18:38:28.396Z,61.91
2018-05-11T18:40:54.237Z,62.55
2018-05-11T18:43:20.089Z,63.21
2018-05-11T18:45:45.927Z,64.13
2018-05-11T18:48:11.784Z,65.07
2018-05-11T18:50:37.643Z,65.66
2018-05-11T18:53:03.686Z,66.25
2018-05-11T18:55:29.465Z,66.36
2018-05-11T18:57:55.300Z,66.52
2018-05-11T19:00:21.201Z,66.78
2018-05-11T19:02:47.072Z,67.81
2018-05-11T19:05:13.008Z,67.97
2018-05-11T19:07:38.907Z,68.13
2018-05-11T19:10:04.868Z,68.27
2018-05-11T19:12:30.811Z,68.28
2018-05-11T19:14:56.677Z,68.46
2018-05-11T19:17:22.561Z,68.17
2018-05-11T19:19:48.409Z,68.46
2018-05-11T19:22:14.299Z,68.41
2018-05-11T19:24:40.184Z,67.82
2018-05-11T19:27:06.042Z,67.38
2018-05-11T19:29:31.888Z,67.93
2018-05-11T19:31:57.772Z,68.65
2018-05-11T19:34:23.625Z,69.17
2018-05-11T19:36:49.480Z,69.22
2018-05-11T19:39:15.404Z,69.28
2018-05-11T19:41:41.320Z,69.47
2018-05-11T19:44:07.221Z,69.25
2018-05-11T19:46:33.109Z,69.66
2018-05-11T19:48:58.995Z,69.60
2018-05-11T19:51:24.869Z,71.62
2018-05-11T19:53:50.735Z,71.43
2018-05-11T19:56:16.616Z,71.87
2018-05-11T19:58:42.492Z,72.08
2018-05-11T20:01:08.382Z,72.59
2018-05-11T20:03:34.273Z,72.18
2018-05-11T20:06:00.161Z,72.01
2018-05-11T20:08:26.029Z,72.18
2018-05-11T20:10:52.029Z,72.40
2018-05-11T20:13:17.833Z,72.45
2018-05-11T20:15:43.731Z,73.65
2018-05-11T20:18:09.637Z,73.33
2018-05-11T20:20:35.533Z,73.53
2018-05-11T20:23:01.425Z,73.38
2018-05-11T20:25:27.358Z,73.40
2018-05-11T20:27:53.239Z,73.37
2018-05-11T20:30:19.107Z,73.46
2018-05-11T20:32:45.044Z,73.02
2018-05-11T20:35:10.872Z,73.71
2018-05-11T20:37:36.730Z,73.66
2018-05-11T20:40:02.809Z,73.64
2018-05-11T20:42:28.756Z,74.28
2018-05-11T20:44:54.652Z,74.61
2018-05-11T20:47:20.538Z,74.70
2018-05-11T20:49:46.496Z,73.68
2018-05-11T20:52:12.413Z,73.85
2018-05-11T20:54:38.287Z,74.14
2018-05-11T20:57:04.158Z,73.92
2018-05-11T20:59:30.026Z,73.93
2018-05-11T21:01:55.916Z,74.45
2018-05-11T21:04:21.788Z,74.97
2018-05-11T21:06:47.657Z,75.55
2018-05-11T21:09:13.537Z,75.76
2018-05-11T21:11:39.507Z,75.93
2018-05-11T21:14:05.374Z,75.63
2018-05-11T21:16:31.253Z,75.03
2018-05-11T21:18:57.136Z,74.16
2018-05-11T21:21:23.006Z,74.02
2018-05-11T21:23:48.859Z,74.91
2018-05-11T21:26:14.742Z,76.74
2018-05-11T21:28:40.629Z,76.96
2018-05-11T21:31:06.544Z,76.59
2018-05-11T21:33:32.400Z,76.81
2018-05-11T21:35:58.272Z,77.24
2018-05-11T21:38:24.125Z,78.04
2018-05-11T21:40:50.061Z,77.68
2018-05-11T21:43:15.874Z,77.15
2018-05-11T21:45:41.703Z,76.96
2018-05-11T21:48:07.592Z,77.74
2018-05-11T21:50:33.448Z,78.37
2018-05-11T21:52:59.290Z,78.17
2018-05-11T21:55:25.149Z,78.76
2018-05-11T21:57:51.012Z,79.73
2018-05-11T22:00:16.921Z,79.53
2018-05-11T22:02:42.805Z,79.92
2018-05-11T22:05:08.687Z,79.46
2018-05-11T22:07:34.639Z,79.37
2018-05-11T22:10:00.431Z,79.47
2018-05-11T22:12:26.304Z,79.85
2018-05-11T22:14:52.153Z,79.58
2018-05-11T22:17:17.997Z,79.42
2018-05-11T22:19:43.864Z,79.51
2018-05-11T22:22:09.673Z,79.73
2018-05-11T22:24:35.578Z,79.40
2018-05-11T22:27:01.453Z,79.47
2018-05-11T22:29:27.323Z,79.88
2018-05-11T22:31:53.198Z,79.63
2018-05-11T22:34:19.082Z,80.61
2018-05-11T22:36:44.917Z,80.39
2018-05-11T22:39:10.782Z,80.96
2018-05-11T22:41:36.671Z,79.73
2018-05-11T22:44:02.525Z,80.12
2018-05-11T22:46:28.379Z,79.77
2018-05-11T22:48:54.241Z,79.61
2018-05-11T22:51:20.128Z,79.30
2018-05-11T22:53:46.021Z,79.75
2018-05-11T22:56:11.904Z,80.72
2018-05-11T22:58:37.753Z,80.84
2018-05-11T23:01:03.636Z,80.50
2018-05-11T23:03:29.501Z,82.30
2018-05-11T23:05:55.361Z,82.79
2018-05-11T23:08:21.177Z,83.38
2018-05-11T23:10:47.040Z,82.99
2018-05-11T23:13:12.875Z,83.09
2018-05-11T23:15:38.729Z,82.28
2018-05-11T23:18:04.573Z,83.18
2018-05-11T23:20:30.420Z,81.65
2018-05-11T23:22:56.298Z,81.59
2018-05-11T23:25:22.133Z,81.16
2018-05-11T23:27:48.019Z,81.44
2018-05-11T23:30:13.801Z,81.40
2018-05-11T23:32:39.665Z,81.25
2018-05-11T23:35:05.595Z,81.18
2018-05-11T23:37:31.422Z,80.67
2018-05-11T23:39:57.277Z,80.41
2018-05-11T23:42:23.104Z,81.35
2018-05-11T23:44:48.953Z,80.71
2018-05-11T23:47:14.772Z,81.09
2018-05-11T23:49:40.645Z,81.05
2018-05-11T23:52:06.488Z,82.70
2018-05-11T23:54:32.353Z,82.39
2018-05-11T23:56:58.213Z,83.01
2018-05-11T23:59:24.064Z,82.94
